Briefing drone pour Vichy (LFLV)

Rechercher une autre localisation

Conditions de vol :


Nous sommes le : Lundi 05 décembre 2022
Il est 07:14 UTC (08:14 LT)

Lever de soleil : 06:46 UTC (07:46 LT)
Coucher de soleil : 16:27 UTC (17:27 LT)

Météo

L'essentiel des conditions de vol

VIGILANCE MÉTÉO FRANCE - Allier (03)
Pas de vigilances particulieres
CARTE TEMSI
CARTES DES FRONTS
METAR de LFLV
LFLV 050700Z AUTO 19004KT 160V240 9999 FEW030 OVC066 01/01 Q1019

Date d'émission: 05/12/2022
Heure d'émission: 07:00 UTC
Vent: 190° (variable du 160° au 240°) pour 4 KT (7 km/h)
Visibilité horizontale: > 10 km
Plafond :
- Peu de nuages à 3000ft (914m)
- Couvert à 6600ft (2012m)
Température: 1 °C
Point de rosée: 1 °C
Humidité: 100%
Pression (QNH): 1019 hPa
Prévision 24h pour Vichy
Vent : 107° pour 1 KT (3 km/h)
Temperature Maxi: -1 °C
Temperature Min: -1 °C
Humidité : 94%
Condition : Ciel dégagé



Warning: count(): Parameter must be an array or an object that implements Countable in /homepages/6/d509196549/htdocs/droneoxygene/briefing.php on line 743
WEBCAM POUR VICHY

Réglementation

Voler en sécurité

CARTES AERONAUTIQUE 1/500.000
CARTE AZBA (Reseau basse altitude)
CARTES VAC (LFLV)
SUP AIP




Chargement des AIP...
NOTAM (VICHY + Terrain à proximité / FIR )




Chargement des NOTAMS...
CONTACT PREFECTURE 03


Avertissement : Les données mises à disposition sont indicatives. Oxygène Drone ne pourra être tenu responsable de dégâts causés aux biens et aux personnes.